Time;durP1;ratioP1;P1;durP2;ratioP2;P2;SDS_P1;SDS_P2;PMS_P1;PMS_P2;Temp;Humidity;BMP_temperature;BMP_pressure;BME280_temperature;BME280_humidity;BME280_pressure;Samples;Min_cycle;Max_cycle;Signal;HPM_P1;HPM_P2
2021/12/24 00:01:05;;;;;;;1.30;0.50;;;8.80;99.90;;;;;;5095943;28;20496;-58
2021/12/24 00:03:33;;;;;;;0.80;0.50;;;8.80;99.90;;;;;;5095684;28;20487;-58
2021/12/24 00:06:00;;;;;;;1.20;0.70;;;8.80;99.90;;;;;;5095039;28;20537;-58
2021/12/24 00:08:27;;;;;;;0.67;0.50;;;8.70;99.90;;;;;;5096845;28;20508;-58
2021/12/24 00:10:59;;;;;;;1.17;0.60;;;8.70;99.90;;;;;;5097645;28;20481;-58
2021/12/24 00:13:28;;;;;;;0.87;0.40;;;8.70;99.90;;;;;;5098327;28;20573;-58
2021/12/24 00:16:05;;;;;;;1.10;0.60;;;8.70;99.90;;;;;;5097948;28;20544;-59
2021/12/24 00:18:40;;;;;;;0.83;0.50;;;8.70;99.90;;;;;;5096013;28;20452;-58
2021/12/24 00:35:14;;;;;;;1.03;0.50;;;8.50;99.90;;;;;;5096522;28;20510;-57
2021/12/24 00:37:43;;;;;;;0.90;0.40;;;8.60;99.90;;;;;;5095124;28;20469;-57
2021/12/24 00:40:17;;;;;;;0.70;0.50;;;8.60;99.90;;;;;;5096343;28;20511;-57
2021/12/24 00:42:50;;;;;;;0.93;0.50;;;8.70;99.90;;;;;;5096487;28;20488;-57
2021/12/24 00:45:20;;;;;;;4.43;0.50;;;8.70;99.90;;;;;;5096654;28;20477;-57
2021/12/24 00:47:52;;;;;;;0.70;0.50;;;8.70;99.90;;;;;;5096595;28;20807;-58
2021/12/24 00:50:24;;;;;;;1.53;0.50;;;8.70;99.90;;;;;;5093091;28;20484;-58
2021/12/24 00:52:56;;;;;;;0.70;0.40;;;8.60;99.90;;;;;;5094459;28;20584;-58
2021/12/24 00:55:25;;;;;;;2.13;0.50;;;8.60;99.90;;;;;;5094066;28;20453;-58
2021/12/24 00:57:55;;;;;;;0.70;0.40;;;8.60;99.90;;;;;;5094524;28;20460;-58
2021/12/24 01:00:25;;;;;;;2.23;0.60;;;8.60;99.90;;;;;;5095104;28;20481;-58
2021/12/24 01:02:55;;;;;;;0.70;0.50;;;8.60;99.90;;;;;;5095357;28;20548;-58
2021/12/24 01:05:24;;;;;;;1.03;0.70;;;8.60;99.90;;;;;;5096318;28;20556;-58
2021/12/24 01:07:51;;;;;;;1.03;0.53;;;8.60;99.90;;;;;;5095329;28;20497;-58
2021/12/24 01:10:22;;;;;;;1.03;0.63;;;8.60;99.90;;;;;;5095118;28;20533;-58
2021/12/24 01:12:49;;;;;;;1.63;0.50;;;8.50;99.90;;;;;;5094188;28;20521;-58
2021/12/24 01:15:18;;;;;;;0.80;0.50;;;8.50;99.90;;;;;;5075101;28;20528;-57
2021/12/24 01:17:52;;;;;;;0.80;0.40;;;8.40;99.90;;;;;;5095332;28;20454;-58
2021/12/24 01:20:26;;;;;;;1.90;0.50;;;8.50;99.90;;;;;;5095812;28;20634;-58
2021/12/24 01:25:41;;;;;;;3.13;0.60;;;8.60;99.90;;;;;;5077879;28;20426;-57
2021/12/24 01:39:41;;;;;;;1.40;0.50;;;8.70;99.90;;;;;;5077583;28;20463;-58
2021/12/24 01:44:54;;;;;;;0.77;0.40;;;8.80;99.90;;;;;;5095100;28;20464;-57
2021/12/24 01:47:21;;;;;;;0.70;0.50;;;8.90;99.90;;;;;;5095560;28;20465;-58
2021/12/24 01:49:48;;;;;;;0.63;0.50;;;9.00;99.90;;;;;;5095347;28;20528;-59
2021/12/24 01:52:16;;;;;;;3.23;0.47;;;9.00;99.90;;;;;;5095127;28;20520;-59
2021/12/24 01:54:44;;;;;;;1.03;0.40;;;9.00;99.90;;;;;;5095122;28;20881;-59
2021/12/24 01:57:12;;;;;;;0.80;0.40;;;9.00;99.90;;;;;;5095455;28;20485;-57
2021/12/24 01:59:40;;;;;;;0.80;0.40;;;9.00;99.90;;;;;;5096514;28;20512;-57
2021/12/24 02:02:07;;;;;;;0.60;0.40;;;9.00;99.90;;;;;;5096842;28;20824;-59
2021/12/24 02:04:37;;;;;;;0.77;0.50;;;9.10;99.90;;;;;;5096205;28;20532;-59
2021/12/24 02:07:07;;;;;;;1.63;0.50;;;9.00;99.90;;;;;;5096266;28;20957;-58
2021/12/24 02:09:38;;;;;;;0.60;0.40;;;9.10;99.90;;;;;;5096108;28;20933;-59
2021/12/24 02:12:07;;;;;;;1.77;0.47;;;9.10;99.90;;;;;;5094289;28;20528;-59
2021/12/24 02:14:37;;;;;;;0.80;0.40;;;9.00;99.90;;;;;;5093237;28;20449;-58
2021/12/24 02:17:30;;;;;;;0.73;0.40;;;9.00;99.90;;;;;;5092740;28;20461;-59
2021/12/24 02:28:25;;;;;;;1.40;0.47;;;9.00;99.90;;;;;;5095752;28;20541;-59
2021/12/24 02:30:53;;;;;;;2.90;0.50;;;9.00;99.90;;;;;;5096670;28;20502;-59
2021/12/24 02:33:20;;;;;;;1.50;0.50;;;8.90;99.90;;;;;;5096295;28;20593;-58
2021/12/24 02:35:48;;;;;;;0.50;0.30;;;8.90;99.90;;;;;;5096228;28;20889;-58
2021/12/24 02:38:16;;;;;;;1.70;0.50;;;8.80;99.90;;;;;;5096497;28;20469;-59
2021/12/24 02:40:43;;;;;;;2.23;0.40;;;8.80;99.90;;;;;;5096296;28;20541;-59
2021/12/24 02:43:14;;;;;;;0.70;0.40;;;8.80;99.90;;;;;;5095950;28;20554;-59
2021/12/24 02:45:43;;;;;;;0.93;0.40;;;8.80;99.90;;;;;;5096916;28;20848;-59
2021/12/24 02:53:59;;;;;;;1.43;0.50;;;8.90;99.90;;;;;;5091028;28;20978;-59
2021/12/24 02:56:29;;;;;;;0.77;0.50;;;8.90;99.90;;;;;;5098826;28;20458;-58
2021/12/24 02:58:58;;;;;;;0.83;0.40;;;8.90;99.90;;;;;;5098730;28;20469;-58
2021/12/24 03:01:28;;;;;;;1.10;0.40;;;8.90;99.90;;;;;;5099150;28;20489;-59
2021/12/24 03:03:55;;;;;;;0.60;0.30;;;8.90;99.90;;;;;;5100153;28;20487;-59
2021/12/24 03:06:26;;;;;;;0.63;0.37;;;8.90;99.90;;;;;;5100637;28;20544;-59
2021/12/24 03:08:54;;;;;;;0.80;0.50;;;8.90;99.90;;;;;;5099943;28;20493;-59
2021/12/24 03:11:22;;;;;;;1.73;0.40;;;8.90;99.90;;;;;;5098721;28;20514;-59
2021/12/24 03:13:50;;;;;;;1.10;0.50;;;8.80;99.90;;;;;;5080656;28;20504;-58
2021/12/24 03:16:17;;;;;;;1.23;0.43;;;8.90;99.90;;;;;;5099043;28;20801;-59
2021/12/24 03:18:45;;;;;;;0.77;0.30;;;8.90;99.90;;;;;;5099279;28;20441;-58
2021/12/24 03:21:17;;;;;;;0.63;0.40;;;8.90;99.90;;;;;;5098299;28;20457;-57
2021/12/24 03:24:33;;;;;;;0.63;0.40;;;8.90;99.90;;;;;;5098916;28;20883;-58
2021/12/24 03:26:34;;;;;;;1.10;0.40;;;8.80;99.90;;;;;;5098654;28;20877;-57
2021/12/24 03:29:01;;;;;;;0.60;0.40;;;8.80;99.90;;;;;;5099889;28;20500;-58
2021/12/24 03:31:28;;;;;;;0.70;0.30;;;8.80;99.90;;;;;;5099521;28;20548;-58
2021/12/24 03:33:55;;;;;;;0.80;0.50;;;8.80;99.90;;;;;;5098651;28;20575;-58
2021/12/24 03:36:24;;;;;;;0.73;0.50;;;8.70;99.90;;;;;;5099652;28;20536;-58
2021/12/24 03:38:52;;;;;;;0.80;0.50;;;8.70;99.90;;;;;;5099233;28;20876;-58
2021/12/24 03:41:19;;;;;;;0.50;0.40;;;8.70;99.90;;;;;;5098914;28;20501;-58
2021/12/24 03:43:47;;;;;;;0.70;0.50;;;8.60;99.90;;;;;;5098974;28;20461;-58
2021/12/24 03:46:17;;;;;;;0.90;0.40;;;8.60;99.90;;;;;;5098521;28;20500;-58
2021/12/24 03:48:49;;;;;;;1.30;0.60;;;8.50;99.90;;;;;;5098817;28;20724;-58
2021/12/24 03:51:37;;;;;;;0.67;0.33;;;8.50;99.90;;;;;;5098288;28;20460;-58
2021/12/24 03:56:50;;;;;;;0.80;0.43;;;8.50;99.90;;;;;;5097036;28;20437;-58
2021/12/24 03:59:17;;;;;;;0.63;0.30;;;8.50;99.90;;;;;;5097354;28;20938;-58
2021/12/24 04:01:43;;;;;;;1.27;0.50;;;8.50;99.90;;;;;;5098969;28;20915;-57
2021/12/24 04:04:10;;;;;;;0.60;0.40;;;8.60;99.90;;;;;;5098716;28;20889;-58
2021/12/24 04:06:38;;;;;;;1.00;0.40;;;8.60;99.90;;;;;;5098933;28;20897;-59
2021/12/24 04:09:08;;;;;;;1.10;0.40;;;8.60;99.90;;;;;;5098745;28;20481;-57
2021/12/24 04:11:37;;;;;;;0.70;0.33;;;8.70;99.90;;;;;;5097543;28;20608;-58
2021/12/24 04:14:04;;;;;;;1.13;0.40;;;8.80;99.90;;;;;;5098616;28;20481;-58
2021/12/24 04:16:31;;;;;;;0.60;0.40;;;8.90;99.90;;;;;;5096902;28;20454;-58
2021/12/24 04:19:15;;;;;;;0.77;0.40;;;9.00;99.90;;;;;;5097223;28;20477;-58
2021/12/24 04:27:13;;;;;;;1.10;0.40;;;9.10;99.90;;;;;;5095562;28;20527;-58
2021/12/24 04:29:40;;;;;;;2.53;0.40;;;9.10;99.90;;;;;;5096510;28;20817;-65
2021/12/24 04:32:11;;;;;;;0.70;0.40;;;9.10;99.90;;;;;;5097047;28;20488;-58
2021/12/24 04:34:42;;;;;;;0.80;0.40;;;9.10;99.90;;;;;;5096946;28;20517;-59
2021/12/24 04:39:57;;;;;;;1.10;0.37;;;9.00;99.90;;;;;;5073912;28;20425;-58
2021/12/24 05:01:46;;;;;;;0.87;0.40;;;9.00;99.90;;;;;;5097184;28;20567;-58
2021/12/24 05:04:14;;;;;;;0.90;0.50;;;9.10;99.90;;;;;;5097678;28;20440;-58
2021/12/24 05:06:50;;;;;;;0.70;0.30;;;9.10;99.90;;;;;;5097832;28;20468;-59
2021/12/24 05:09:22;;;;;;;0.70;0.43;;;9.10;99.90;;;;;;5097990;28;20538;-59
2021/12/24 05:11:51;;;;;;;0.70;0.30;;;9.10;99.90;;;;;;5097677;28;20449;-58
2021/12/24 05:14:18;;;;;;;0.70;0.40;;;9.10;99.90;;;;;;5097457;28;20497;-58
2021/12/24 05:16:48;;;;;;;0.70;0.40;;;9.10;99.90;;;;;;5097772;28;20499;-60
2021/12/24 05:21:56;;;;;;;0.77;0.30;;;9.10;99.90;;;;;;5097234;28;20472;-59
2021/12/24 05:24:26;;;;;;;0.70;0.40;;;9.10;99.90;;;;;;5097302;28;20528;-59
2021/12/24 05:26:57;;;;;;;0.60;0.40;;;9.10;99.90;;;;;;5097302;28;20453;-60
2021/12/24 05:29:24;;;;;;;0.60;0.30;;;9.10;99.90;;;;;;5097315;28;20532;-59
2021/12/24 05:31:51;;;;;;;0.70;0.40;;;9.00;99.90;;;;;;5097498;28;20544;-59
2021/12/24 05:34:18;;;;;;;0.77;0.40;;;9.00;99.90;;;;;;5097349;28;20589;-59
2021/12/24 05:36:46;;;;;;;0.97;0.47;;;9.00;99.90;;;;;;5097094;28;20524;-59
2021/12/24 05:39:14;;;;;;;1.77;0.40;;;8.90;99.90;;;;;;5096891;28;20485;-59
2021/12/24 05:41:41;;;;;;;1.90;0.40;;;8.80;99.90;;;;;;5097074;28;20464;-58
2021/12/24 05:44:14;;;;;;;0.67;0.50;;;8.80;99.90;;;;;;5096975;28;20466;-59
2021/12/24 05:46:42;;;;;;;1.63;0.50;;;8.90;99.90;;;;;;5096886;28;20482;-59
2021/12/24 05:49:08;;;;;;;1.30;0.43;;;8.90;99.90;;;;;;5096991;28;20533;-59
2021/12/24 05:51:36;;;;;;;0.77;0.40;;;9.00;99.90;;;;;;5097171;28;20936;-59
2021/12/24 05:54:05;;;;;;;0.83;0.50;;;9.10;99.90;;;;;;5096699;28;20481;-58
2021/12/24 05:56:32;;;;;;;0.70;0.37;;;9.20;99.90;;;;;;5096767;28;20734;-59
2021/12/24 05:58:59;;;;;;;3.30;0.40;;;9.20;99.90;;;;;;5096415;28;20480;-59
2021/12/24 06:01:28;;;;;;;0.70;0.43;;;9.30;99.90;;;;;;5096548;28;20453;-59
2021/12/24 06:03:54;;;;;;;0.70;0.40;;;9.40;99.90;;;;;;5097111;28;20881;-59
2021/12/24 06:06:22;;;;;;;0.73;0.40;;;9.40;99.90;;;;;;5096959;28;20515;-59
2021/12/24 06:08:49;;;;;;;0.60;0.30;;;9.50;99.90;;;;;;5096269;28;20928;-59
2021/12/24 06:11:16;;;;;;;0.90;0.50;;;9.60;99.90;;;;;;5095266;28;20493;-59
2021/12/24 06:13:44;;;;;;;0.90;0.53;;;9.60;99.90;;;;;;5095535;28;20572;-60
2021/12/24 06:16:11;;;;;;;0.93;0.50;;;9.60;99.90;;;;;;5095084;28;20495;-59
2021/12/24 06:18:40;;;;;;;0.70;0.50;;;9.70;99.90;;;;;;5095750;28;20544;-59
2021/12/24 06:21:08;;;;;;;0.60;0.43;;;9.70;99.90;;;;;;5095229;28;20492;-59
2021/12/24 06:23:37;;;;;;;1.20;0.50;;;9.70;99.90;;;;;;5093693;28;20473;-59
2021/12/24 06:26:05;;;;;;;1.53;0.40;;;9.60;99.90;;;;;;5094963;28;20494;-58
2021/12/24 06:28:32;;;;;;;1.00;0.50;;;9.70;99.90;;;;;;5095442;28;20449;-59
2021/12/24 06:30:59;;;;;;;0.73;0.40;;;9.70;99.90;;;;;;5095835;28;20514;-59
2021/12/24 06:33:26;;;;;;;0.97;0.50;;;9.70;99.90;;;;;;5096292;28;20541;-59
2021/12/24 06:35:56;;;;;;;0.93;0.50;;;9.70;99.90;;;;;;5095823;28;20492;-60
2021/12/24 06:38:24;;;;;;;0.80;0.40;;;9.70;99.90;;;;;;5096052;28;20807;-58
2021/12/24 06:40:51;;;;;;;1.17;0.40;;;9.70;99.90;;;;;;5095986;28;20536;-58
2021/12/24 06:43:18;;;;;;;0.97;0.50;;;9.70;99.90;;;;;;5095897;28;20900;-58
2021/12/24 06:45:47;;;;;;;0.70;0.50;;;9.70;99.90;;;;;;5096338;28;20520;-58
2021/12/24 06:48:14;;;;;;;0.70;0.50;;;9.70;99.90;;;;;;5096092;28;20499;-59
2021/12/24 06:50:41;;;;;;;0.53;0.40;;;9.70;99.90;;;;;;5096105;28;20485;-59
2021/12/24 06:53:10;;;;;;;0.50;0.40;;;9.70;99.90;;;;;;5094598;28;20931;-59
2021/12/24 06:55:37;;;;;;;1.07;0.60;;;9.70;99.90;;;;;;5094402;28;20481;-59
2021/12/24 06:58:04;;;;;;;0.80;0.40;;;9.80;99.90;;;;;;5095142;28;20481;-59
2021/12/24 07:00:31;;;;;;;1.10;0.50;;;9.80;99.90;;;;;;5095843;28;20541;-58
2021/12/24 07:02:58;;;;;;;1.10;0.50;;;9.70;99.90;;;;;;5095815;28;20548;-58
2021/12/24 07:05:26;;;;;;;2.03;0.40;;;9.70;99.90;;;;;;5095908;28;20540;-59
2021/12/24 07:07:53;;;;;;;0.90;0.50;;;9.70;99.90;;;;;;5088919;28;20979;-58
2021/12/24 07:10:22;;;;;;;1.70;0.60;;;9.60;99.90;;;;;;5091980;28;20528;-60
2021/12/24 07:12:49;;;;;;;1.10;0.60;;;9.50;99.90;;;;;;5091095;28;20544;-59
2021/12/24 07:15:17;;;;;;;0.80;0.50;;;9.40;99.90;;;;;;5092342;28;20488;-59
2021/12/24 07:17:44;;;;;;;3.73;0.60;;;9.40;99.90;;;;;;5093298;28;20904;-59
2021/12/24 07:20:11;;;;;;;0.67;0.40;;;9.40;99.90;;;;;;5091036;28;20473;-59
2021/12/24 07:22:40;;;;;;;0.90;0.43;;;9.30;99.90;;;;;;5080241;28;20473;-59
2021/12/24 07:25:10;;;;;;;1.00;0.60;;;9.20;99.90;;;;;;5088525;28;20491;-59
2021/12/24 07:27:38;;;;;;;0.90;0.50;;;9.10;99.90;;;;;;5079091;28;20877;-58
2021/12/24 07:30:09;;;;;;;1.27;0.40;;;9.10;99.90;;;;;;5083439;28;20699;-59
2021/12/24 07:32:36;;;;;;;1.00;0.57;;;9.00;99.90;;;;;;5079494;28;20977;-58
2021/12/24 07:35:03;;;;;;;1.23;0.50;;;9.00;99.90;;;;;;5092684;28;20521;-59
2021/12/24 07:37:30;;;;;;;0.70;0.40;;;9.00;99.90;;;;;;5087249;28;20551;-59
2021/12/24 07:39:57;;;;;;;0.87;0.50;;;8.90;99.90;;;;;;5099080;28;20830;-59
2021/12/24 07:42:26;;;;;;;0.90;0.60;;;8.80;99.90;;;;;;5091853;28;20502;-59
2021/12/24 07:44:54;;;;;;;1.40;0.77;;;8.80;99.90;;;;;;5098845;28;20456;-59
2021/12/24 07:47:31;;;;;;;1.55;0.80;;;8.90;99.90;;;;;;5093945;28;20485;-59
2021/12/24 07:50:02;;;;;;;2.07;0.60;;;8.90;99.90;;;;;;5088220;28;20238;-60
2021/12/24 07:52:29;;;;;;;1.20;0.50;;;9.00;99.90;;;;;;5083520;28;20737;-58
2021/12/24 07:54:57;;;;;;;0.80;0.50;;;9.00;99.90;;;;;;5094015;28;20480;-58
2021/12/24 07:57:25;;;;;;;1.10;0.60;;;9.00;99.90;;;;;;5098829;28;20482;-58
2021/12/24 07:59:52;;;;;;;1.00;0.50;;;9.00;99.90;;;;;;5097911;28;20473;-58
2021/12/24 08:02:26;;;;;;;0.87;0.40;;;9.00;99.90;;;;;;5098397;28;20459;-58
2021/12/24 08:04:53;;;;;;;0.70;0.50;;;9.00;99.90;;;;;;5097968;28;20523;-57
2021/12/24 08:07:21;;;;;;;1.10;0.50;;;9.00;99.90;;;;;;5098066;28;20445;-58
2021/12/24 08:09:48;;;;;;;0.63;0.50;;;9.10;99.90;;;;;;5098376;28;20438;-59
2021/12/24 08:12:15;;;;;;;1.00;0.50;;;9.10;99.90;;;;;;5098071;28;20453;-59
2021/12/24 08:14:42;;;;;;;0.90;0.50;;;9.10;99.90;;;;;;5097807;28;20509;-59
2021/12/24 08:17:09;;;;;;;0.90;0.50;;;9.00;99.90;;;;;;5097852;28;20455;-58
2021/12/24 08:19:38;;;;;;;0.80;0.50;;;9.10;99.90;;;;;;5097837;28;20532;-58
2021/12/24 08:22:06;;;;;;;1.30;0.53;;;9.10;99.90;;;;;;5098104;28;20507;-59
2021/12/24 08:24:33;;;;;;;0.87;0.50;;;9.10;99.90;;;;;;5098345;28;20811;-58
2021/12/24 08:27:00;;;;;;;0.83;0.50;;;9.20;99.90;;;;;;5097754;28;20524;-61
2021/12/24 08:29:27;;;;;;;0.70;0.40;;;9.20;99.90;;;;;;5098181;28;20532;-59
2021/12/24 08:31:55;;;;;;;0.90;0.60;;;9.20;99.90;;;;;;5097976;28;20489;-59
2021/12/24 08:34:22;;;;;;;0.90;0.50;;;9.20;99.90;;;;;;5097233;28;20485;-59
2021/12/24 08:36:52;;;;;;;0.80;0.50;;;9.30;99.90;;;;;;5096367;28;20901;-60
2021/12/24 08:39:21;;;;;;;3.40;0.47;;;9.30;99.90;;;;;;5097493;28;20888;-58
2021/12/24 08:41:54;;;;;;;0.90;0.40;;;9.40;99.90;;;;;;5097453;28;20520;-59
2021/12/24 08:44:21;;;;;;;0.90;0.47;;;9.40;99.90;;;;;;5097003;28;20445;-59
2021/12/24 08:46:48;;;;;;;0.87;0.50;;;9.40;99.90;;;;;;5096676;28;20536;-58
2021/12/24 08:49:18;;;;;;;1.03;0.40;;;9.40;99.90;;;;;;5096090;28;20830;-59
2021/12/24 08:51:45;;;;;;;0.90;0.40;;;9.40;99.90;;;;;;5096983;28;20560;-57
2021/12/24 08:54:13;;;;;;;0.80;0.50;;;9.40;99.90;;;;;;5090134;28;20825;-59
2021/12/24 08:56:41;;;;;;;1.10;0.60;;;9.50;99.90;;;;;;5096410;28;20519;-59
2021/12/24 08:59:11;;;;;;;2.70;0.50;;;9.40;99.90;;;;;;5095966;28;20583;-57
2021/12/24 09:01:38;;;;;;;1.00;0.50;;;9.50;99.90;;;;;;5096940;28;20450;-56
2021/12/24 09:04:05;;;;;;;0.70;0.40;;;9.60;99.90;;;;;;5091150;28;20475;-58
2021/12/24 09:06:32;;;;;;;0.67;0.40;;;9.50;99.90;;;;;;5098348;28;20539;-56
2021/12/24 09:08:59;;;;;;;0.67;0.50;;;9.50;99.90;;;;;;5097090;28;20519;-55
2021/12/24 09:11:29;;;;;;;0.60;0.40;;;9.50;99.90;;;;;;5080364;28;20802;-56
2021/12/24 09:13:56;;;;;;;1.60;0.53;;;9.40;99.90;;;;;;5081564;28;20833;-58
2021/12/24 09:16:23;;;;;;;0.70;0.40;;;9.50;99.90;;;;;;5089239;28;20503;-59
2021/12/24 09:18:56;;;;;;;0.70;0.50;;;9.40;99.90;;;;;;5076548;28;20471;-59
2021/12/24 09:21:24;;;;;;;1.03;0.53;;;9.40;99.90;;;;;;5089491;28;20803;-55
2021/12/24 09:23:53;;;;;;;1.37;0.50;;;9.40;99.90;;;;;;5083304;28;20529;-58
2021/12/24 09:26:28;;;;;;;11.13;5.27;;;9.30;99.90;;;;;;5083712;28;20462;-59
2021/12/24 09:28:57;;;;;;;1.00;0.60;;;9.40;99.90;;;;;;5090580;28;20759;-56
2021/12/24 09:31:27;;;;;;;1.07;0.50;;;9.30;99.90;;;;;;5074111;28;20450;-53
2021/12/24 09:33:57;;;;;;;0.77;0.40;;;9.30;99.90;;;;;;5082716;28;20458;-57
2021/12/24 09:36:26;;;;;;;2.17;0.60;;;9.20;99.90;;;;;;5092817;28;20593;-54
2021/12/24 09:38:56;;;;;;;1.90;0.50;;;9.20;99.90;;;;;;5077092;28;20446;-58
2021/12/24 09:41:24;;;;;;;0.83;0.50;;;9.20;99.90;;;;;;5088540;28;20674;-58
2021/12/24 09:43:57;;;;;;;0.90;0.53;;;9.20;99.90;;;;;;5086248;28;20521;-57
2021/12/24 09:46:26;;;;;;;1.57;0.50;;;9.20;99.90;;;;;;5088632;28;20457;-58
2021/12/24 09:48:54;;;;;;;0.90;0.60;;;9.10;99.90;;;;;;5091187;28;20532;-58
2021/12/24 09:51:24;;;;;;;1.00;0.43;;;9.10;99.90;;;;;;5089719;28;20474;-57
2021/12/24 09:53:51;;;;;;;0.77;0.50;;;9.20;99.90;;;;;;5082948;28;20442;-58
2021/12/24 09:56:20;;;;;;;0.77;0.47;;;9.10;99.90;;;;;;5079100;28;20488;-58
2021/12/24 09:58:47;;;;;;;0.87;0.53;;;9.10;99.90;;;;;;5089071;28;20501;-58
2021/12/24 10:01:30;;;;;;;0.50;0.40;;;9.10;99.90;;;;;;5077230;28;20560;-58
2021/12/24 10:04:05;;;;;;;1.10;0.50;;;9.20;99.90;;;;;;5084861;28;20492;-56
2021/12/24 10:06:33;;;;;;;1.00;0.50;;;9.20;99.90;;;;;;5088098;28;20449;-58
2021/12/24 10:09:05;;;;;;;0.87;0.50;;;9.20;99.90;;;;;;5078203;28;20823;-58
2021/12/24 10:11:46;;;;;;;1.20;0.60;;;9.20;99.90;;;;;;5088931;28;20563;-58
2021/12/24 10:14:14;;;;;;;1.10;0.57;;;9.20;99.90;;;;;;5082009;28;20450;-58
2021/12/24 10:16:45;;;;;;;0.70;0.40;;;9.20;99.90;;;;;;5087872;28;20449;-58
2021/12/24 10:19:13;;;;;;;1.77;0.60;;;9.30;99.90;;;;;;5076226;28;20473;-58
2021/12/24 10:21:46;;;;;;;2.07;1.00;;;9.30;99.90;;;;;;5086558;28;20449;-58
2021/12/24 10:24:16;;;;;;;2.50;0.60;;;9.30;99.90;;;;;;5086580;28;20793;-58
2021/12/24 10:26:52;;;;;;;1.40;0.73;;;9.40;99.90;;;;;;5077994;28;20485;-58
2021/12/24 10:29:21;;;;;;;0.60;0.40;;;9.30;99.90;;;;;;5078580;28;20468;-57
2021/12/24 10:31:51;;;;;;;0.80;0.50;;;9.40;99.90;;;;;;5092853;28;20677;-58
2021/12/24 10:34:24;;;;;;;1.70;0.70;;;9.40;99.90;;;;;;5080841;28;20810;-58
2021/12/24 10:37:02;;;;;;;1.67;0.40;;;9.40;99.90;;;;;;5089697;28;20446;-59
2021/12/24 10:39:33;;;;;;;1.00;0.50;;;9.40;99.90;;;;;;5078266;28;20990;-59
2021/12/24 10:42:02;;;;;;;2.70;0.50;;;9.40;99.90;;;;;;5085834;28;20819;-58
2021/12/24 10:44:33;;;;;;;0.73;0.40;;;9.40;99.90;;;;;;5092502;28;20451;-58
2021/12/24 10:47:09;;;;;;;0.63;0.40;;;9.30;99.90;;;;;;5075286;28;20484;-59
2021/12/24 10:52:45;;;;;;;0.50;0.40;;;9.20;99.90;;;;;;5073612;28;20432;-59
2021/12/24 10:55:16;;;;;;;1.23;0.50;;;9.10;99.90;;;;;;5090666;28;20474;-58
2021/12/24 10:57:47;;;;;;;0.80;0.50;;;9.20;99.90;;;;;;5080390;28;20446;-59
2021/12/24 11:00:20;;;;;;;1.20;0.50;;;9.20;99.90;;;;;;5080804;28;20944;-59
2021/12/24 11:02:55;;;;;;;0.90;0.50;;;9.20;99.90;;;;;;5090206;28;20545;-58
2021/12/24 11:05:31;;;;;;;0.80;0.50;;;9.10;99.90;;;;;;5077424;28;20456;-59
2021/12/24 11:08:02;;;;;;;1.77;0.50;;;9.10;99.90;;;;;;5087426;28;20478;-62
2021/12/24 11:10:31;;;;;;;0.90;0.50;;;9.10;99.90;;;;;;5083098;28;20524;-58
2021/12/24 11:13:08;;;;;;;0.50;0.40;;;9.10;99.90;;;;;;5094762;28;20457;-57
2021/12/24 11:15:38;;;;;;;0.70;0.40;;;9.10;99.90;;;;;;5083310;28;20875;-59
2021/12/24 11:18:08;;;;;;;0.87;0.40;;;9.20;99.90;;;;;;5089373;28;20927;-58
2021/12/24 11:20:36;;;;;;;0.87;0.43;;;9.20;99.90;;;;;;5090448;28;20473;-58
2021/12/24 11:23:07;;;;;;;1.33;0.40;;;9.20;99.90;;;;;;5094280;28;21073;-58
2021/12/24 11:25:37;;;;;;;1.87;0.50;;;9.30;99.90;;;;;;5085976;28;20513;-58
2021/12/24 11:28:05;;;;;;;2.03;0.50;;;9.30;99.90;;;;;;5085538;28;20453;-58
2021/12/24 11:30:34;;;;;;;0.90;0.40;;;9.30;99.90;;;;;;5090334;28;21005;-58
2021/12/24 11:33:02;;;;;;;0.90;0.50;;;9.30;99.90;;;;;;5077418;28;20956;-58
2021/12/24 11:35:31;;;;;;;0.67;0.40;;;9.20;99.90;;;;;;5086774;28;20570;-58
2021/12/24 11:38:00;;;;;;;0.53;0.30;;;9.20;99.90;;;;;;5094297;28;20891;-58
2021/12/24 11:40:28;;;;;;;0.80;0.30;;;9.30;99.90;;;;;;5093601;28;20475;-58
2021/12/24 11:42:59;;;;;;;0.97;0.30;;;9.30;99.90;;;;;;5077314;28;20545;-59
2021/12/24 11:45:29;;;;;;;0.80;0.40;;;9.30;99.90;;;;;;5089932;28;20442;-58
2021/12/24 11:47:57;;;;;;;0.50;0.30;;;9.30;99.90;;;;;;5084516;28;20899;-58
2021/12/24 11:50:26;;;;;;;1.50;0.40;;;9.30;99.90;;;;;;5081662;28;20469;-59
2021/12/24 11:52:56;;;;;;;0.80;0.30;;;9.40;99.90;;;;;;5092284;28;20536;-60
2021/12/24 11:55:25;;;;;;;0.50;0.30;;;9.40;99.90;;;;;;5080893;28;20466;-59
2021/12/24 11:57:54;;;;;;;0.70;0.33;;;9.50;99.90;;;;;;5090600;28;20473;-59
2021/12/24 12:00:28;;;;;;;1.73;0.40;;;9.50;99.90;;;;;;5096649;28;20469;-59
2021/12/24 12:02:55;;;;;;;0.67;0.30;;;9.50;99.90;;;;;;5097139;28;20512;-59
2021/12/24 12:05:28;;;;;;;0.73;0.20;;;9.50;99.90;;;;;;5096877;28;20530;-58
2021/12/24 12:08:36;;;;;;;0.43;0.27;;;9.60;99.90;;;;;;5096000;28;20477;-58
2021/12/24 12:11:06;;;;;;;0.40;0.30;;;9.60;99.90;;;;;;5094964;28;20548;-57
2021/12/24 12:13:42;;;;;;;0.53;0.30;;;9.70;99.90;;;;;;5093955;28;20445;-58
2021/12/24 12:16:13;;;;;;;0.57;0.30;;;9.70;99.90;;;;;;5092731;28;20573;-57
2021/12/24 12:18:47;;;;;;;0.40;0.30;;;9.70;99.90;;;;;;5091969;28;20942;-57
2021/12/24 12:21:19;;;;;;;1.10;0.30;;;9.70;99.90;;;;;;5091147;28;20722;-57
2021/12/24 12:26:42;;;;;;;0.30;0.20;;;9.80;99.90;;;;;;5094659;28;20899;-57
2021/12/24 12:29:25;;;;;;;0.40;0.30;;;9.80;99.90;;;;;;5094614;28;20522;-58
2021/12/24 12:31:55;;;;;;;0.30;0.17;;;9.80;99.90;;;;;;5094851;28;20456;-58
2021/12/24 12:34:48;;;;;;;0.37;0.20;;;9.80;99.90;;;;;;5095872;28;20861;-59
2021/12/24 12:37:19;;;;;;;0.60;0.30;;;9.90;99.90;;;;;;5077987;28;20550;-59
2021/12/24 12:39:49;;;;;;;0.50;0.27;;;9.90;99.90;;;;;;5094494;28;20826;-58
2021/12/24 12:42:18;;;;;;;0.50;0.20;;;9.90;99.90;;;;;;5100724;28;20488;-59
2021/12/24 12:44:47;;;;;;;0.40;0.20;;;9.90;99.90;;;;;;5114459;28;20785;-59
2021/12/24 12:47:17;;;;;;;0.40;0.20;;;9.90;99.90;;;;;;5099733;28;20453;-58
2021/12/24 12:49:45;;;;;;;0.40;0.30;;;10.00;99.90;;;;;;5094669;28;20437;-59
2021/12/24 12:52:23;;;;;;;0.40;0.20;;;10.10;99.90;;;;;;5086803;28;20450;-58
2021/12/24 12:54:56;;;;;;;0.40;0.20;;;10.10;99.90;;;;;;5100180;28;20456;-59
2021/12/24 12:57:29;;;;;;;0.33;0.20;;;10.10;99.90;;;;;;5110505;28;20722;-59
2021/12/24 13:00:19;;;;;;;0.60;0.30;;;10.10;99.90;;;;;;5108865;28;20461;-59
2021/12/24 13:03:12;;;;;;;0.50;0.20;;;10.00;99.90;;;;;;5075215;28;20505;-60
2021/12/24 13:06:00;;;;;;;0.40;0.20;;;10.00;99.90;;;;;;5075435;28;20435;-60
2021/12/24 13:08:29;;;;;;;0.40;0.20;;;10.00;99.90;;;;;;5076170;28;20959;-60
2021/12/24 13:11:02;;;;;;;0.60;0.20;;;10.00;99.90;;;;;;5076227;28;20478;-59
2021/12/24 13:13:29;;;;;;;0.50;0.20;;;10.00;99.90;;;;;;5105663;28;20452;-59
2021/12/24 13:15:56;;;;;;;0.30;0.13;;;10.00;99.90;;;;;;5116672;28;20579;-58
2021/12/24 13:18:28;;;;;;;0.33;0.20;;;10.00;99.90;;;;;;5080347;28;20528;-59
2021/12/24 13:23:42;;;;;;;0.70;0.20;;;10.00;99.90;;;;;;5075167;28;20429;-60
2021/12/24 13:26:18;;;;;;;0.30;0.10;;;10.00;99.90;;;;;;5073105;28;20541;-59
2021/12/24 13:28:56;;;;;;;0.40;0.20;;;10.00;99.90;;;;;;5074938;28;20757;-60
2021/12/24 13:31:23;;;;;;;1.27;0.30;;;10.00;99.90;;;;;;5075890;28;20933;-61
2021/12/24 13:33:50;;;;;;;0.60;0.20;;;10.00;99.90;;;;;;5075712;28;20538;-61
2021/12/24 13:36:22;;;;;;;0.40;0.10;;;10.00;99.90;;;;;;5075881;28;20572;-60
2021/12/24 13:38:50;;;;;;;0.57;0.20;;;9.90;99.90;;;;;;5076170;28;20565;-61
2021/12/24 13:41:26;;;;;;;0.40;0.20;;;9.90;99.90;;;;;;5075092;28;20485;-59
2021/12/24 13:43:55;;;;;;;1.30;0.23;;;9.90;99.90;;;;;;5074818;28;20454;-57
2021/12/24 13:46:22;;;;;;;0.50;0.20;;;10.00;99.90;;;;;;5075350;28;20449;-58
2021/12/24 13:49:14;;;;;;;0.50;0.23;;;9.90;99.90;;;;;;5084079;28;20467;-58
2021/12/24 13:54:37;;;;;;;0.33;0.10;;;9.90;99.90;;;;;;5108906;28;20990;-59
2021/12/24 13:57:07;;;;;;;2.20;0.20;;;10.00;99.90;;;;;;5089913;28;20477;-58
2021/12/24 13:59:37;;;;;;;0.50;0.20;;;10.00;99.90;;;;;;5093777;28;20987;-59
2021/12/24 14:02:09;;;;;;;0.40;0.10;;;10.00;99.90;;;;;;5093997;28;20488;-59
2021/12/24 14:04:36;;;;;;;0.40;0.20;;;10.00;99.90;;;;;;5094745;28;20507;-59
2021/12/24 14:07:04;;;;;;;0.50;0.20;;;9.90;99.90;;;;;;5094907;28;20480;-59
2021/12/24 14:09:33;;;;;;;0.40;0.20;;;10.00;99.90;;;;;;5094741;28;20994;-59
2021/12/24 14:12:06;;;;;;;0.40;0.20;;;10.00;99.90;;;;;;5093867;28;20809;-58
2021/12/24 14:14:46;;;;;;;0.63;0.20;;;10.00;99.90;;;;;;5092220;28;20449;-58
2021/12/24 14:20:15;;;;;;;0.80;0.40;;;10.00;99.90;;;;;;5087412;28;20442;-58
2021/12/24 14:22:42;;;;;;;0.50;0.27;;;10.00;99.90;;;;;;5092489;28;20453;-59
2021/12/24 14:25:15;;;;;;;0.50;0.23;;;10.00;99.90;;;;;;5074693;28;20742;-59
2021/12/24 14:27:47;;;;;;;1.30;0.20;;;10.00;99.90;;;;;;5092152;28;20528;-58
2021/12/24 14:30:18;;;;;;;0.40;0.20;;;10.00;99.90;;;;;;5093491;28;20882;-58
2021/12/24 14:32:49;;;;;;;0.30;0.10;;;10.00;99.90;;;;;;5094069;28;20442;-58
2021/12/24 14:35:21;;;;;;;0.50;0.30;;;10.00;99.90;;;;;;5082217;28;20442;-58
2021/12/24 14:38:00;;;;;;;0.53;0.20;;;10.00;99.90;;;;;;5082623;28;20527;-59
2021/12/24 14:40:29;;;;;;;0.60;0.30;;;10.00;99.90;;;;;;5093038;28;20449;-59
2021/12/24 14:42:57;;;;;;;0.40;0.20;;;10.00;99.90;;;;;;5092921;28;20501;-59